createdAt,value
2019-02-28T00:02:31.359Z,17.20
2019-02-28T00:05:05.805Z,19.73
2019-02-28T00:07:36.278Z,19.17
2019-02-28T00:10:09.555Z,20.83
2019-02-28T00:12:41.191Z,17.03
2019-02-28T00:15:13.875Z,17.50
2019-02-28T00:17:45.463Z,19.00
2019-02-28T00:20:17.012Z,19.30
2019-02-28T00:22:49.424Z,20.37
2019-02-28T00:25:21.085Z,15.97
2019-02-28T00:27:53.451Z,18.00
2019-02-28T00:30:26.213Z,13.93
2019-02-28T00:32:59.322Z,17.47
2019-02-28T00:35:31.063Z,17.97
2019-02-28T00:38:02.656Z,17.67
2019-02-28T00:40:34.285Z,16.27
2019-02-28T00:43:05.888Z,16.63
2019-02-28T00:45:38.328Z,13.20
2019-02-28T00:48:10.515Z,15.37
2019-02-28T00:50:42.223Z,12.20
2019-02-28T00:53:14.608Z,15.57
2019-02-28T00:55:47.030Z,15.00
2019-02-28T00:58:18.737Z,13.53
2019-02-28T01:00:50.342Z,14.50
2019-02-28T01:03:26.499Z,15.83
2019-02-28T01:05:55.983Z,17.67
2019-02-28T01:08:27.646Z,17.43
2019-02-28T01:10:59.312Z,16.63
2019-02-28T01:13:30.831Z,15.57
2019-02-28T01:16:02.453Z,18.03
2019-02-28T01:18:34.768Z,15.20
2019-02-28T01:21:07.098Z,14.47
2019-02-28T01:23:38.727Z,15.07
2019-02-28T01:26:11.757Z,14.53
2019-02-28T01:28:43.638Z,17.80
2019-02-28T01:31:15.296Z,13.30
2019-02-28T01:33:47.078Z,12.73
2019-02-28T01:36:18.697Z,14.23
2019-02-28T01:38:50.294Z,17.70
2019-02-28T01:41:21.902Z,16.73
2019-02-28T01:43:53.496Z,16.70
2019-02-28T01:46:25.178Z,16.13
2019-02-28T01:48:57.008Z,17.27
2019-02-28T01:51:28.688Z,16.37
2019-02-28T01:54:00.191Z,17.87
2019-02-28T01:56:34.299Z,14.70
2019-02-28T01:59:05.091Z,17.53
2019-02-28T02:01:36.737Z,17.87
2019-02-28T02:04:08.783Z,18.33
2019-02-28T02:06:40.394Z,18.27
2019-02-28T02:09:11.940Z,21.30
2019-02-28T02:11:43.738Z,19.00
2019-02-28T02:14:15.425Z,15.47
2019-02-28T02:16:47.055Z,18.13
2019-02-28T02:19:18.844Z,18.53
2019-02-28T02:21:51.102Z,16.23
2019-02-28T02:24:24.405Z,13.50
2019-02-28T02:26:56.317Z,18.53
2019-02-28T02:29:27.896Z,17.27
2019-02-28T02:32:01.141Z,17.50
2019-02-28T02:34:32.698Z,17.83
2019-02-28T02:37:04.786Z,18.70
2019-02-28T02:39:36.546Z,19.37
2019-02-28T02:42:11.425Z,17.77
2019-02-28T02:44:41.832Z,17.27
2019-02-28T02:47:13.412Z,16.40
2019-02-28T02:49:45.521Z,15.17
2019-02-28T02:52:17.330Z,14.13
2019-02-28T02:54:52.234Z,15.63
2019-02-28T02:57:22.214Z,16.33
2019-02-28T02:59:53.882Z,15.43
2019-02-28T03:02:28.838Z,13.90
2019-02-28T03:05:01.820Z,15.70
2019-02-28T03:07:33.388Z,15.20
2019-02-28T03:10:08.753Z,15.83
2019-02-28T03:12:40.375Z,16.03
2019-02-28T03:15:15.347Z,13.87
2019-02-28T03:17:48.630Z,10.90
2019-02-28T03:20:20.215Z,12.67
2019-02-28T03:22:51.987Z,10.40
2019-02-28T03:25:27.642Z,11.13
2019-02-28T03:27:57.008Z,13.57
2019-02-28T03:30:32.748Z,9.63
2019-02-28T03:33:02.123Z,11.60
2019-02-28T03:35:41.732Z,11.73
2019-02-28T03:38:11.458Z,10.90
2019-02-28T03:40:41.261Z,11.57
2019-02-28T03:43:13.035Z,12.17
2019-02-28T03:45:44.569Z,11.10
2019-02-28T03:48:16.206Z,11.03
2019-02-28T03:50:47.807Z,10.30
2019-02-28T03:53:20.942Z,12.60
2019-02-28T03:55:52.751Z,10.83
2019-02-28T03:58:24.385Z,11.53
2019-02-28T04:00:55.974Z,12.37
2019-02-28T04:03:33.433Z,11.53
2019-02-28T04:06:03.665Z,12.27
2019-02-28T04:08:34.091Z,10.00
2019-02-28T04:11:05.797Z,10.43
2019-02-28T04:13:37.382Z,10.67
2019-02-28T04:16:10.024Z,10.20
2019-02-28T04:18:46.167Z,10.30
2019-02-28T04:21:15.095Z,10.93
2019-02-28T04:23:46.691Z,11.93
2019-02-28T04:26:19.395Z,10.60
2019-02-28T04:28:54.733Z,8.50
2019-02-28T04:31:24.220Z,12.67
2019-02-28T04:33:55.933Z,10.47
2019-02-28T04:36:27.502Z,9.87
2019-02-28T04:38:59.194Z,9.93
2019-02-28T04:41:32.908Z,9.90
2019-02-28T04:44:04.242Z,10.10
2019-02-28T04:46:35.814Z,10.60
2019-02-28T04:49:07.485Z,9.97
2019-02-28T04:51:40.151Z,10.80
2019-02-28T04:54:12.333Z,9.73
2019-02-28T04:56:45.566Z,10.50
2019-02-28T04:59:17.337Z,10.50
2019-02-28T05:01:49.025Z,10.53
2019-02-28T05:04:20.699Z,9.63
2019-02-28T05:06:55.254Z,9.47
2019-02-28T05:09:26.453Z,9.03
2019-02-28T05:11:58.081Z,9.77
2019-02-28T05:14:29.627Z,10.13
2019-02-28T05:17:01.221Z,10.43
2019-02-28T05:19:35.847Z,7.80
2019-02-28T05:22:06.324Z,9.40
2019-02-28T05:24:39.394Z,9.47
2019-02-28T05:27:12.103Z,9.57
2019-02-28T05:29:44.712Z,9.93
2019-02-28T05:32:16.629Z,12.00
2019-02-28T05:34:51.188Z,8.90
2019-02-28T05:37:21.963Z,8.80
2019-02-28T05:39:53.466Z,9.23
2019-02-28T05:42:26.619Z,10.83
2019-02-28T05:44:58.290Z,10.50
2019-02-28T05:47:32.399Z,9.93
2019-02-28T05:50:03.011Z,9.77
2019-02-28T05:52:34.638Z,9.77
2019-02-28T05:55:09.355Z,9.83
2019-02-28T05:57:43.407Z,11.30
2019-02-28T06:00:17.750Z,9.53
2019-02-28T06:02:49.407Z,9.93
2019-02-28T06:05:20.923Z,10.73
2019-02-28T06:07:52.739Z,9.60
2019-02-28T06:10:24.910Z,9.87
2019-02-28T06:12:56.551Z,8.80
2019-02-28T06:15:28.980Z,9.83
2019-02-28T06:18:00.803Z,10.60
2019-02-28T06:20:32.485Z,10.87
2019-02-28T06:23:06.336Z,10.90
2019-02-28T06:25:37.714Z,10.23
2019-02-28T06:28:09.296Z,10.00
2019-02-28T06:30:42.624Z,12.97
2019-02-28T06:33:14.278Z,11.20
2019-02-28T06:35:45.897Z,11.77
2019-02-28T06:38:19.240Z,10.87
2019-02-28T06:40:51.689Z,12.27
2019-02-28T06:43:23.381Z,12.03
2019-02-28T06:45:55.767Z,12.53
2019-02-28T06:48:28.189Z,10.97
2019-02-28T06:50:59.808Z,11.17
2019-02-28T06:53:33.966Z,13.60
2019-02-28T06:56:06.305Z,10.97
2019-02-28T06:58:37.908Z,12.07
2019-02-28T07:01:09.485Z,12.03
2019-02-28T07:03:42.571Z,13.70
2019-02-28T07:06:14.690Z,13.43
2019-02-28T07:08:46.387Z,11.43
2019-02-28T07:11:19.905Z,13.03
2019-02-28T07:13:51.420Z,11.87
2019-02-28T07:16:23.006Z,13.00
2019-02-28T07:18:54.579Z,12.00
2019-02-28T07:21:26.178Z,14.10
2019-02-28T07:23:57.758Z,12.60
2019-02-28T07:26:29.258Z,9.33
2019-02-28T07:29:00.917Z,12.33
2019-02-28T07:31:32.684Z,10.27
2019-02-28T07:34:04.258Z,11.87
2019-02-28T07:36:35.826Z,15.83
2019-02-28T07:39:07.393Z,15.03
2019-02-28T07:41:41.389Z,11.53
2019-02-28T07:44:12.668Z,12.27
2019-02-28T07:46:44.329Z,11.77
2019-02-28T07:49:15.893Z,13.83
2019-02-28T07:51:47.485Z,14.13
2019-02-28T07:54:20.480Z,14.23
2019-02-28T07:56:52.744Z,15.00
2019-02-28T07:59:24.555Z,12.10
2019-02-28T08:01:56.175Z,14.47
2019-02-28T08:04:27.905Z,13.10
2019-02-28T08:06:59.539Z,15.20
2019-02-28T08:09:31.068Z,12.87
2019-02-28T08:12:03.103Z,16.33
2019-02-28T08:14:34.775Z,14.43
2019-02-28T08:17:09.032Z,15.77
2019-02-28T08:19:40.256Z,16.87
2019-02-28T08:22:11.869Z,16.13
2019-02-28T08:24:43.534Z,20.90
2019-02-28T08:27:15.582Z,17.73
2019-02-28T08:29:47.405Z,21.63
2019-02-28T08:32:18.992Z,16.93
2019-02-28T08:34:50.696Z,19.70
2019-02-28T08:37:22.496Z,20.27
2019-02-28T08:39:54.188Z,19.70
2019-02-28T08:42:25.800Z,19.98
2019-02-28T08:44:58.938Z,19.60
2019-02-28T08:47:30.821Z,20.50
2019-02-28T08:50:02.794Z,19.47
2019-02-28T08:52:37.642Z,20.53
2019-02-28T08:55:14.793Z,20.80
2019-02-28T08:57:54.499Z,20.80
2019-02-28T09:00:21.915Z,19.77
2019-02-28T09:02:53.844Z,22.60
2019-02-28T09:05:28.937Z,24.83
2019-02-28T09:07:58.803Z,22.67
2019-02-28T09:10:31.393Z,24.57
2019-02-28T09:13:07.696Z,21.97
2019-02-28T09:15:36.309Z,23.67
2019-02-28T09:18:07.975Z,24.83
2019-02-28T09:20:41.349Z,23.73
2019-02-28T09:23:13.052Z,25.12
2019-02-28T09:25:44.659Z,25.08
2019-02-28T09:28:16.193Z,21.82
2019-02-28T09:30:55.440Z,20.32
2019-02-28T09:33:27.016Z,23.50
2019-02-28T09:35:58.651Z,20.70
2019-02-28T09:38:30.332Z,23.40
2019-02-28T09:41:04.615Z,23.17
2019-02-28T09:43:35.258Z,23.53
2019-02-28T09:46:09.040Z,22.77
2019-02-28T09:48:40.920Z,25.27
2019-02-28T09:51:12.575Z,24.37
2019-02-28T09:53:44.158Z,21.87
2019-02-28T09:56:15.827Z,23.07
2019-02-28T09:58:49.491Z,23.17
2019-02-28T10:01:24.416Z,21.93
2019-02-28T10:03:56.216Z,24.87
2019-02-28T10:06:27.937Z,21.20
2019-02-28T10:08:59.542Z,23.60
2019-02-28T10:11:31.890Z,22.43
2019-02-28T10:14:04.128Z,24.70
2019-02-28T10:16:35.998Z,23.03
2019-02-28T10:19:10.283Z,22.50
2019-02-28T10:21:41.138Z,22.45
2019-02-28T10:24:12.688Z,21.67
2019-02-28T10:26:44.209Z,22.22
2019-02-28T10:29:15.949Z,24.83
2019-02-28T10:31:49.081Z,26.68
2019-02-28T10:34:23.543Z,23.35
2019-02-28T10:36:53.931Z,23.20
2019-02-28T10:39:25.489Z,24.23
2019-02-28T10:41:57.092Z,21.57
2019-02-28T10:44:30.726Z,24.10
2019-02-28T10:47:02.516Z,24.47
2019-02-28T10:49:34.122Z,27.35
2019-02-28T10:52:05.773Z,23.25
2019-02-28T10:54:37.919Z,22.80
2019-02-28T10:57:09.545Z,20.40
2019-02-28T10:59:41.430Z,21.25
2019-02-28T11:02:13.959Z,20.75
2019-02-28T11:04:46.594Z,21.90
2019-02-28T11:07:18.223Z,23.60
2019-02-28T11:09:49.925Z,25.27
2019-02-28T11:12:23.719Z,24.55
2019-02-28T11:14:54.895Z,25.35
2019-02-28T11:17:30.488Z,21.33
2019-02-28T11:20:01.300Z,23.02
2019-02-28T11:22:36.552Z,24.82
2019-02-28T11:25:12.017Z,22.58
2019-02-28T11:27:43.632Z,27.50
2019-02-28T11:30:22.571Z,24.72
2019-02-28T11:32:54.098Z,26.27
2019-02-28T11:35:25.845Z,28.12
2019-02-28T11:37:57.516Z,27.13
2019-02-28T11:40:29.989Z,26.30
2019-02-28T11:43:03.846Z,28.40
2019-02-28T11:45:41.512Z,28.27
2019-02-28T11:48:20.203Z,25.27
2019-02-28T11:50:50.738Z,26.27
2019-02-28T11:53:22.397Z,28.85
2019-02-28T11:55:54.423Z,25.97
2019-02-28T11:58:26.122Z,26.57
2019-02-28T12:00:57.833Z,25.52
2019-02-28T12:03:31.806Z,23.73
2019-02-28T12:06:02.766Z,26.52
2019-02-28T12:08:34.402Z,26.82
2019-02-28T12:11:05.954Z,24.52
2019-02-28T12:13:37.625Z,26.33
2019-02-28T12:16:09.404Z,26.35
2019-02-28T12:18:41.086Z,23.07
2019-02-28T12:21:13.020Z,23.40
2019-02-28T12:23:44.703Z,26.07
2019-02-28T12:26:17.717Z,26.55
2019-02-28T12:28:49.494Z,26.48
2019-02-28T12:31:21.031Z,26.73
2019-02-28T12:33:53.382Z,24.60
2019-02-28T12:36:27.637Z,28.32
2019-02-28T12:39:02.081Z,23.65
2019-02-28T12:41:34.250Z,28.80
2019-02-28T12:44:06.065Z,28.00
2019-02-28T12:46:37.846Z,23.52
2019-02-28T12:49:09.368Z,27.98
2019-02-28T12:51:41.023Z,25.65
2019-02-28T12:54:12.630Z,26.03
2019-02-28T12:56:47.827Z,25.20
2019-02-28T12:59:18.554Z,23.27
2019-02-28T13:01:50.120Z,27.70
2019-02-28T13:04:21.749Z,25.27
2019-02-28T13:06:55.546Z,25.85
2019-02-28T13:09:27.490Z,24.10
2019-02-28T13:11:59.084Z,27.02
2019-02-28T13:14:30.694Z,27.90
2019-02-28T13:17:02.431Z,25.55
2019-02-28T13:19:34.045Z,25.65
2019-02-28T13:22:05.683Z,25.15
2019-02-28T13:24:37.384Z,24.80
2019-02-28T13:27:09.829Z,24.27
2019-02-28T13:29:42.458Z,26.03
2019-02-28T13:32:14.272Z,27.15
2019-02-28T13:34:45.880Z,30.48
2019-02-28T13:37:17.470Z,30.77
2019-02-28T13:39:49.114Z,26.42
2019-02-28T13:42:20.665Z,31.33
2019-02-28T13:44:52.272Z,27.27
2019-02-28T13:47:25.567Z,28.00
2019-02-28T13:49:57.118Z,29.72
2019-02-28T13:52:28.709Z,26.95
2019-02-28T13:55:00.418Z,29.52
2019-02-28T13:57:32.135Z,30.88
2019-02-28T14:00:07.850Z,28.67
2019-02-28T14:02:38.075Z,32.15
2019-02-28T14:05:09.745Z,24.72
2019-02-28T14:07:41.418Z,27.85
2019-02-28T14:10:18.619Z,36.48
2019-02-28T14:12:53.204Z,30.65
2019-02-28T14:15:34.345Z,33.28
2019-02-28T14:18:07.489Z,31.27
2019-02-28T14:20:40.258Z,31.48
2019-02-28T14:23:11.918Z,31.33
2019-02-28T14:25:43.507Z,32.60
2019-02-28T14:28:15.968Z,30.70
2019-02-28T14:30:47.610Z,30.43
2019-02-28T14:33:20.638Z,32.70
2019-02-28T14:35:52.507Z,33.83
2019-02-28T14:38:26.018Z,32.65
2019-02-28T14:40:59.361Z,32.70
2019-02-28T14:43:31.350Z,31.95
2019-02-28T14:46:03.594Z,36.07
2019-02-28T14:48:36.651Z,33.28
2019-02-28T14:51:08.886Z,30.95
2019-02-28T14:53:40.769Z,29.52
2019-02-28T14:56:14.374Z,35.93
2019-02-28T14:58:57.382Z,33.17
2019-02-28T15:01:27.703Z,34.13
2019-02-28T15:03:59.454Z,35.87
2019-02-28T15:06:31.272Z,34.15
2019-02-28T15:09:46.608Z,35.65
2019-02-28T15:12:55.381Z,33.60
2019-02-28T15:15:27.943Z,36.37
2019-02-28T15:18:32.766Z,37.23
2019-02-28T15:24:45.754Z,37.90
2019-02-28T15:27:17.879Z,37.83
2019-02-28T15:29:49.697Z,39.00
2019-02-28T15:32:23.407Z,39.27
2019-02-28T15:34:54.761Z,36.93
2019-02-28T15:37:26.434Z,36.10
2019-02-28T15:39:57.968Z,43.70
2019-02-28T15:42:29.512Z,42.67
2019-02-28T15:45:04.135Z,43.43
2019-02-28T15:47:34.636Z,41.43
2019-02-28T15:50:13.626Z,34.30
2019-02-28T15:52:46.700Z,37.80
2019-02-28T15:55:20.174Z,40.10
2019-02-28T15:57:51.724Z,36.03
2019-02-28T16:00:28.471Z,35.33
2019-02-28T16:03:00.886Z,38.17
2019-02-28T16:05:32.499Z,34.80
2019-02-28T16:08:08.737Z,36.90
2019-02-28T16:10:37.399Z,36.47
2019-02-28T16:13:09.021Z,32.50
2019-02-28T16:15:43.270Z,35.03
2019-02-28T16:18:14.015Z,36.20
2019-02-28T16:20:45.549Z,31.60
2019-02-28T16:23:17.136Z,32.33
2019-02-28T16:25:50.177Z,33.50
2019-02-28T16:28:21.866Z,37.43
2019-02-28T16:30:53.467Z,36.93
2019-02-28T16:33:25.554Z,33.13
2019-02-28T16:35:57.140Z,34.67
2019-02-28T16:38:30.361Z,33.30
2019-02-28T16:41:02.153Z,34.93
2019-02-28T16:43:34.056Z,31.43
2019-02-28T16:46:05.683Z,36.77
2019-02-28T16:48:37.817Z,36.33
2019-02-28T16:51:09.364Z,31.67
2019-02-28T16:53:41.015Z,38.67
2019-02-28T16:56:12.554Z,29.67
2019-02-28T16:58:44.079Z,33.80
2019-02-28T17:01:17.535Z,31.63
2019-02-28T17:03:49.435Z,30.83
2019-02-28T17:06:20.978Z,25.40
2019-02-28T17:08:54.517Z,31.23
2019-02-28T17:11:28.469Z,31.87
2019-02-28T17:14:01.755Z,27.87
2019-02-28T17:16:38.614Z,27.43
2019-02-28T17:19:11.346Z,33.77
2019-02-28T17:21:42.899Z,29.33
2019-02-28T17:24:14.492Z,35.03
2019-02-28T17:26:50.552Z,27.80
2019-02-28T17:29:25.212Z,32.33
2019-02-28T17:31:57.606Z,25.70
2019-02-28T17:34:29.210Z,28.93
2019-02-28T17:37:00.831Z,33.27
2019-02-28T17:39:33.286Z,28.33
2019-02-28T17:42:08.565Z,27.00
2019-02-28T17:44:46.276Z,29.83
2019-02-28T17:47:33.036Z,27.23
2019-02-28T17:50:42.838Z,31.20
2019-02-28T17:53:38.191Z,28.37
2019-02-28T17:56:32.126Z,25.23
2019-02-28T17:59:31.105Z,27.33
2019-02-28T18:02:46.892Z,27.97
2019-02-28T18:05:51.911Z,23.00
2019-02-28T18:08:50.510Z,27.03
2019-02-28T18:11:45.012Z,27.63
2019-02-28T18:14:40.383Z,29.03
2019-02-28T18:17:53.483Z,23.33
2019-02-28T18:20:38.909Z,21.90
2019-02-28T18:23:39.688Z,25.63
2019-02-28T18:26:39.187Z,25.67
2019-02-28T18:29:15.026Z,24.97
2019-02-28T18:31:46.615Z,22.67
2019-02-28T18:34:20.575Z,26.07
2019-02-28T18:36:51.796Z,27.90
2019-02-28T18:39:25.319Z,20.27
2019-02-28T18:41:56.692Z,24.97
2019-02-28T18:44:28.294Z,20.43
2019-02-28T18:47:02.989Z,22.70
2019-02-28T18:49:33.248Z,18.03
2019-02-28T18:52:04.906Z,19.57
2019-02-28T18:54:36.960Z,20.27
2019-02-28T18:57:08.499Z,22.30
2019-02-28T18:59:40.283Z,19.53
2019-02-28T19:02:12.083Z,25.07
2019-02-28T19:04:43.754Z,20.50
2019-02-28T19:07:15.412Z,24.10
2019-02-28T19:09:47.105Z,27.73
2019-02-28T19:12:18.662Z,21.30
2019-02-28T19:14:50.669Z,24.43
2019-02-28T19:17:22.275Z,22.03
2019-02-28T19:19:53.952Z,24.97
2019-02-28T19:22:25.540Z,24.97
2019-02-28T19:24:57.191Z,24.53
2019-02-28T19:27:28.881Z,23.23
2019-02-28T19:30:00.481Z,24.93
2019-02-28T19:32:33.859Z,24.63
2019-02-28T19:35:05.885Z,25.40
2019-02-28T19:37:37.610Z,23.97
2019-02-28T19:40:12.401Z,27.00
2019-02-28T19:42:44.011Z,24.33
2019-02-28T19:45:25.458Z,22.37
2019-02-28T19:47:57.585Z,26.13
2019-02-28T19:50:29.197Z,21.97
2019-02-28T19:53:00.802Z,25.17
2019-02-28T19:55:32.400Z,24.47
2019-02-28T19:58:04.013Z,24.13
2019-02-28T20:00:35.597Z,25.13
2019-02-28T20:03:07.686Z,28.23
2019-02-28T20:05:39.221Z,22.80
2019-02-28T20:08:10.802Z,24.57
2019-02-28T20:10:42.515Z,24.67
2019-02-28T20:13:14.227Z,24.03
2019-02-28T20:15:45.960Z,22.83
2019-02-28T20:18:18.257Z,24.80
2019-02-28T20:20:50.474Z,23.47
2019-02-28T20:23:22.075Z,19.37
2019-02-28T20:25:53.700Z,20.80
2019-02-28T20:28:25.515Z,20.33
2019-02-28T20:30:57.580Z,19.93
2019-02-28T20:33:29.183Z,17.80
2019-02-28T20:36:01.366Z,18.33
2019-02-28T20:38:33.184Z,21.13
2019-02-28T20:41:04.855Z,21.07
2019-02-28T20:43:36.656Z,20.73
2019-02-28T20:46:08.253Z,18.33
2019-02-28T20:48:39.938Z,23.17
2019-02-28T20:51:11.494Z,20.03
2019-02-28T20:53:43.144Z,19.50
2019-02-28T20:56:14.776Z,17.93
2019-02-28T20:58:46.364Z,17.70
2019-02-28T21:01:18.135Z,18.57
2019-02-28T21:03:49.750Z,16.87
2019-02-28T21:06:21.423Z,16.77
2019-02-28T21:08:53.101Z,14.97
2019-02-28T21:11:24.737Z,14.07
2019-02-28T21:13:56.382Z,17.40
2019-02-28T21:16:28.052Z,17.20
2019-02-28T21:18:59.667Z,16.23
2019-02-28T21:21:31.460Z,16.73
2019-02-28T21:24:04.135Z,17.70
2019-02-28T21:26:35.708Z,18.67
2019-02-28T21:29:07.569Z,17.47
2019-02-28T21:34:26.299Z,16.33
2019-02-28T21:36:58.235Z,17.03
2019-02-28T21:39:30.490Z,18.07
2019-02-28T21:42:02.379Z,18.23
2019-02-28T21:44:46.796Z,16.53
2019-02-28T21:47:18.398Z,18.07
2019-02-28T21:49:50.286Z,17.67
2019-02-28T21:52:22.067Z,19.67
2019-02-28T21:54:53.737Z,19.80
2019-02-28T21:57:26.027Z,17.97
2019-02-28T22:00:00.331Z,16.87
2019-02-28T22:02:34.294Z,22.47
2019-02-28T22:05:38.711Z,24.47
2019-02-28T22:08:11.073Z,19.43
2019-02-28T22:10:42.612Z,22.17
2019-02-28T22:13:14.994Z,25.63
2019-02-28T22:15:46.569Z,22.07
2019-02-28T22:18:18.843Z,23.80
2019-02-28T22:20:50.950Z,23.70
2019-02-28T22:23:22.892Z,21.77
2019-02-28T22:25:54.851Z,23.60
2019-02-28T22:28:26.983Z,22.30
2019-02-28T22:31:00.305Z,21.67
2019-02-28T22:33:42.725Z,21.57
2019-02-28T22:36:16.004Z,20.53
2019-02-28T22:38:47.686Z,22.63
2019-02-28T22:41:19.785Z,21.63
2019-02-28T22:43:51.328Z,21.20
2019-02-28T22:46:22.991Z,21.40
2019-02-28T22:48:54.645Z,21.43
2019-02-28T22:51:26.153Z,21.47
2019-02-28T22:53:57.763Z,22.47
2019-02-28T22:56:29.279Z,21.07
2019-02-28T22:59:00.819Z,20.23
2019-02-28T23:01:32.798Z,18.80
2019-02-28T23:04:04.324Z,19.80
2019-02-28T23:06:36.089Z,19.67
2019-02-28T23:09:08.081Z,16.90
2019-02-28T23:11:40.221Z,21.70
2019-02-28T23:14:11.816Z,24.70
2019-02-28T23:16:43.405Z,19.93
2019-02-28T23:19:15.018Z,24.27
2019-02-28T23:21:46.574Z,19.70
2019-02-28T23:24:18.174Z,26.10
2019-02-28T23:27:13.085Z,20.27
2019-02-28T23:29:58.659Z,20.17
2019-02-28T23:32:42.497Z,22.40
2019-02-28T23:35:22.215Z,18.43
2019-02-28T23:37:53.740Z,20.10
2019-02-28T23:40:25.288Z,20.23
2019-02-28T23:42:56.823Z,19.67
2019-02-28T23:45:28.679Z,17.97
2019-02-28T23:48:00.344Z,19.07
2019-02-28T23:50:31.939Z,19.60
2019-02-28T23:53:03.553Z,19.73
2019-02-28T23:55:35.084Z,19.30
2019-02-28T23:58:06.656Z,17.40
